Dades meteomassalio
Diari Summary for Gener 18, 2018 Units:  Both    English   Metric
« Previous Day
Next Day »
Diari Semanal Mensual Anual Personalitzat
  Maxima: Minima: Mijana:
Temperatura: TemperatureF °F /  -17.8 °C 32.0 °F /  0 °C 42.9 °F /  6.1 °C
Rosada: DewpointF °F /  -17.8 °C 26.3 °F /  -3.2 °C 32.8 °F /  0.4 °C
Humitat: Humidity % 40 % 69 %
Velocitat del vent: WindSpeedMPH mph /  0 km/h - 2.8 mph /  4.5 km/h
Racha vent: WindSpeedGustMPH mph /  0 km/h - -
Vent:- - WSW
Pressio: PressureIn in /  0 hPa 30.23 in /  1023.6 hPa -
Pluja: 0.00 in /  0 mm    
Historical Graphs
 
 
Tabular Data for Gener 18, 2018
Time Temperature Dew Point Pressure Wind Wind Speed Wind Gust Humidity Rainfall Rate (Hourly) solar Conditions
TemperatureF °F /  -17.8 °C DewpointF °F /  -17.8 °C PressureIn in /  0 hPa Calm     Humidity % HourlyPrecipIn in /  0 mm SolarRadiationWatts/m^2 W/m2 Conditions
00:01 46.0 °F /  7.8 °C 37.8 °F /  3.2 °C 30.42 in /  1030 hPa West 6.9 mph /  11.1 km/h 6.9 mph /  11.1 km/h 73 % 0.00 in /  0 mm 0.0 W/m2 CLR
00:06 45.0 °F /  7.2 °C 36.9 °F /  2.7 °C 30.42 in /  1030 hPa WSW 9.2 mph /  14.8 km/h 9.2 mph /  14.8 km/h 73 % 0.00 in /  0 mm 0.0 W/m2 CLR
00:11 46.0 °F /  7.8 °C 38.2 °F /  3.4 °C 30.42 in /  1030 hPa Calm     74 % 0.00 in /  0 mm 0.0 W/m2 CLR
00:16 45.0 °F /  7.2 °C 37.2 °F /  2.9 °C 30.42 in /  1030 hPa WNW 8.1 mph /  13 km/h 8.1 mph /  13 km/h 74 % 0.00 in /  0 mm 0.0 W/m2 CLR
00:21 44.0 °F /  6.7 °C 36.2 °F /  2.3 °C 30.42 in /  1030 hPa NW 10.4 mph /  16.7 km/h 10.4 mph /  16.7 km/h 74 % 0.00 in /  0 mm 0.0 W/m2 CLR
00:26 44.0 °F /  6.7 °C 36.2 °F /  2.3 °C 30.43 in /  1030.4 hPa WSW 7.0 mph /  11.3 km/h 7.0 mph /  11.3 km/h 74 % 0.00 in /  0 mm 0.0 W/m2 CLR
00:31 44.0 °F /  6.7 °C 36.2 °F /  2.3 °C 30.43 in /  1030.4 hPa Calm     74 % 0.00 in /  0 mm 0.0 W/m2 CLR
00:36 44.0 °F /  6.7 °C 36.2 °F /  2.3 °C 30.42 in /  1030 hPa WNW 6.0 mph /  9.7 km/h 6.0 mph /  9.7 km/h 74 % 0.00 in /  0 mm 0.0 W/m2 CLR
00:41 44.0 °F /  6.7 °C 36.6 °F /  2.6 °C 30.43 in /  1030.4 hPa WSW 10.4 mph /  16.7 km/h 10.4 mph /  16.7 km/h 75 % 0.00 in /  0 mm 0.0 W/m2 CLR
00:46 45.0 °F /  7.2 °C 37.6 °F /  3.1 °C 30.43 in /  1030.4 hPa WSW 9.2 mph /  14.8 km/h 9.2 mph /  14.8 km/h 75 % 0.00 in /  0 mm 0.0 W/m2 CLR
00:51 44.0 °F /  6.7 °C 36.9 °F /  2.7 °C 30.42 in /  1030 hPa WNW 9.2 mph /  14.8 km/h 9.2 mph /  14.8 km/h 76 % 0.00 in /  0 mm 0.0 W/m2 CLR
00:56 44.0 °F /  6.7 °C 36.6 °F /  2.6 °C 30.42 in /  1030 hPa West 8.0 mph /  12.9 km/h 8.0 mph /  12.9 km/h 75 % 0.00 in /  0 mm 0.0 W/m2 CLR
01:01 44.0 °F /  6.7 °C 36.6 °F /  2.6 °C 30.43 in /  1030.4 hPa SW 6.9 mph /  11.1 km/h 6.9 mph /  11.1 km/h 75 % 0.00 in /  0 mm 0.0 W/m2 CLR
01:06 44.0 °F /  6.7 °C 36.9 °F /  2.7 °C 30.43 in /  1030.4 hPa West 1.2 mph /  1.9 km/h   76 % 0.00 in /  0 mm 0.0 W/m2 CLR
01:11 45.0 °F /  7.2 °C 37.9 °F /  3.3 °C 30.42 in /  1030 hPa WNW 10.4 mph /  16.7 km/h 10.4 mph /  16.7 km/h 76 % 0.00 in /  0 mm 0.0 W/m2 CLR
01:16 44.0 °F /  6.7 °C 36.9 °F /  2.7 °C 30.42 in /  1030 hPa WNW 8.1 mph /  13 km/h 8.1 mph /  13 km/h 76 % 0.00 in /  0 mm 0.0 W/m2 CLR
01:21 44.0 °F /  6.7 °C 36.9 °F /  2.7 °C 30.42 in /  1030 hPa West 10.4 mph /  16.7 km/h 10.4 mph /  16.7 km/h 76 % 0.00 in /  0 mm 0.0 W/m2 CLR
01:26 44.0 °F /  6.7 °C 36.9 °F /  2.7 °C 30.42 in /  1030 hPa West 6.0 mph /  9.7 km/h 6.0 mph /  9.7 km/h 76 % 0.00 in /  0 mm 0.0 W/m2 CLR
01:31 44.0 °F /  6.7 °C 36.9 °F /  2.7 °C 30.42 in /  1030 hPa West 5.8 mph /  9.3 km/h 5.8 mph /  9.3 km/h 76 % 0.00 in /  0 mm 0.0 W/m2 CLR
01:36 44.0 °F /  6.7 °C 37.3 °F /  2.9 °C 30.42 in /  1030 hPa West 11.5 mph /  18.5 km/h 11.5 mph /  18.5 km/h 77 % 0.00 in /  0 mm 0.0 W/m2 CLR
01:41 43.0 °F /  6.1 °C 36.3 °F /  2.4 °C 30.42 in /  1030 hPa NW 10.4 mph /  16.7 km/h 10.4 mph /  16.7 km/h 77 % 0.00 in /  0 mm 0.0 W/m2 CLR
01:46 42.0 °F /  5.6 °C 35.3 °F /  1.8 °C 30.42 in /  1030 hPa WNW 12.0 mph /  19.3 km/h 12.0 mph /  19.3 km/h 77 % 0.00 in /  0 mm 0.0 W/m2 CLR
01:47 42.0 °F /  5.6 °C 35.0 °F /  1.7 °C 30.42 in /  1030 hPa West 10.4 mph /  16.7 km/h 10.4 mph /  16.7 km/h 76 % 0.00 in /  0 mm 0.0 W/m2 CLR
01:52 43.0 °F /  6.1 °C 36.0 °F /  2.2 °C 30.42 in /  1030 hPa West 9.2 mph /  14.8 km/h 9.2 mph /  14.8 km/h 76 % 0.00 in /  0 mm 0.0 W/m2 CLR
01:57 43.0 °F /  6.1 °C 36.3 °F /  2.4 °C 30.42 in /  1030 hPa WNW 7.0 mph /  11.3 km/h 7.0 mph /  11.3 km/h 77 % 0.00 in /  0 mm 0.0 W/m2 CLR
02:02 42.0 °F /  5.6 °C 35.3 °F /  1.8 °C 30.42 in /  1030 hPa WNW 9.2 mph /  14.8 km/h 9.2 mph /  14.8 km/h 77 % 0.00 in /  0 mm 0.0 W/m2 CLR
02:07 41.0 °F /  5 °C 34.3 °F /  1.3 °C 30.42 in /  1030 hPa West 9.2 mph /  14.8 km/h 9.2 mph /  14.8 km/h 77 % 0.00 in /  0 mm 0.0 W/m2 CLR
02:12 41.0 °F /  5 °C 34.3 °F /  1.3 °C 30.41 in /  1029.7 hPa WNW 9.2 mph /  14.8 km/h 9.2 mph /  14.8 km/h 77 % 0.00 in /  0 mm 0.0 W/m2 CLR
02:17 41.0 °F /  5 °C 34.7 °F /  1.5 °C 30.41 in /  1029.7 hPa West 10.4 mph /  16.7 km/h 10.4 mph /  16.7 km/h 78 % 0.00 in /  0 mm 0.0 W/m2 CLR
02:22 41.0 °F /  5 °C 34.7 °F /  1.5 °C 30.41 in /  1029.7 hPa WSW 10.4 mph /  16.7 km/h 10.4 mph /  16.7 km/h 78 % 0.00 in /  0 mm 0.0 W/m2 CLR
02:27 42.0 °F /  5.6 °C 35.3 °F /  1.8 °C 30.41 in /  1029.7 hPa Calm     77 % 0.00 in /  0 mm 0.0 W/m2 CLR
02:32 41.0 °F /  5 °C 34.7 °F /  1.5 °C 30.41 in /  1029.7 hPa WNW 10.0 mph /  16.1 km/h 10.0 mph /  16.1 km/h 78 % 0.00 in /  0 mm 0.0 W/m2 CLR
02:37 41.0 °F /  5 °C 34.7 °F /  1.5 °C 30.41 in /  1029.7 hPa WNW 9.2 mph /  14.8 km/h 9.2 mph /  14.8 km/h 78 % 0.00 in /  0 mm 0.0 W/m2 CLR
02:42 41.0 °F /  5 °C 34.7 °F /  1.5 °C 30.41 in /  1029.7 hPa West 11.5 mph /  18.5 km/h 11.5 mph /  18.5 km/h 78 % 0.00 in /  0 mm 0.0 W/m2 CLR
02:47 41.0 °F /  5 °C 34.3 °F /  1.3 °C 30.41 in /  1029.7 hPa West 7.0 mph /  11.3 km/h 7.0 mph /  11.3 km/h 77 % 0.00 in /  0 mm 0.0 W/m2 CLR
02:52 40.0 °F /  4.4 °C 33.4 °F /  0.8 °C 30.41 in /  1029.7 hPa West 9.0 mph /  14.5 km/h 9.0 mph /  14.5 km/h 77 % 0.00 in /  0 mm 0.0 W/m2 CLR
02:57 39.0 °F /  3.9 °C 33.0 °F /  0.6 °C 30.41 in /  1029.7 hPa West 9.2 mph /  14.8 km/h 9.2 mph /  14.8 km/h 79 % 0.00 in /  0 mm 0.0 W/m2 CLR
03:02 40.0 °F /  4.4 °C 34.0 °F /  1.1 °C 30.41 in /  1029.7 hPa West 11.5 mph /  18.5 km/h 11.5 mph /  18.5 km/h 79 % 0.00 in /  0 mm 0.0 W/m2 CLR
03:07 40.0 °F /  4.4 °C 33.7 °F /  0.9 °C 30.41 in /  1029.7 hPa WNW 8.1 mph /  13 km/h 8.1 mph /  13 km/h 78 % 0.00 in /  0 mm 0.0 W/m2 CLR
03:12 40.0 °F /  4.4 °C 33.7 °F /  0.9 °C 30.40 in /  1029.3 hPa West 10.0 mph /  16.1 km/h 10.0 mph /  16.1 km/h 78 % 0.00 in /  0 mm 0.0 W/m2 CLR
03:17 40.0 °F /  4.4 °C 33.7 °F /  0.9 °C 30.40 in /  1029.3 hPa WNW 9.2 mph /  14.8 km/h 9.2 mph /  14.8 km/h 78 % 0.00 in /  0 mm 0.0 W/m2 CLR
03:22 39.0 °F /  3.9 °C 32.4 °F /  0.2 °C 30.40 in /  1029.3 hPa NW 11.5 mph /  18.5 km/h 11.5 mph /  18.5 km/h 77 % 0.00 in /  0 mm 0.0 W/m2 CLR
03:27 40.0 °F /  4.4 °C 33.4 °F /  0.8 °C 30.40 in /  1029.3 hPa West 9.2 mph /  14.8 km/h 9.2 mph /  14.8 km/h 77 % 0.00 in /  0 mm 0.0 W/m2 CLR
03:32 41.0 °F /  5 °C 34.7 °F /  1.5 °C 30.40 in /  1029.3 hPa WNW 10.4 mph /  16.7 km/h 10.4 mph /  16.7 km/h 78 % 0.00 in /  0 mm 0.0 W/m2 CLR
03:37 40.0 °F /  4.4 °C 34.0 °F /  1.1 °C 30.40 in /  1029.3 hPa WNW 11.5 mph /  18.5 km/h 11.5 mph /  18.5 km/h 79 % 0.00 in /  0 mm 0.0 W/m2 CLR
03:42 40.0 °F /  4.4 °C 33.7 °F /  0.9 °C 30.39 in /  1029 hPa WNW 13.0 mph /  20.9 km/h 13.0 mph /  20.9 km/h 78 % 0.00 in /  0 mm 0.0 W/m2 CLR
03:47 41.0 °F /  5 °C 34.3 °F /  1.3 °C 30.39 in /  1029 hPa West 13.8 mph /  22.2 km/h 13.8 mph /  22.2 km/h 77 % 0.00 in /  0 mm 0.0 W/m2 CLR
03:52 42.0 °F /  5.6 °C 35.0 °F /  1.7 °C 30.40 in /  1029.3 hPa WSW 4.6 mph /  7.4 km/h 4.6 mph /  7.4 km/h 76 % 0.00 in /  0 mm 0.0 W/m2 CLR
03:57 42.0 °F /  5.6 °C 35.3 °F /  1.8 °C 30.39 in /  1029 hPa WNW 10.0 mph /  16.1 km/h 10.0 mph /  16.1 km/h 77 % 0.00 in /  0 mm 0.0 W/m2 CLR
04:02 41.0 °F /  5 °C 34.7 °F /  1.5 °C 30.38 in /  1028.7 hPa WNW 12.0 mph /  19.3 km/h 12.0 mph /  19.3 km/h 78 % 0.00 in /  0 mm 0.0 W/m2 CLR
04:07 41.0 °F /  5 °C 34.7 °F /  1.5 °C 30.39 in /  1029 hPa WNW 8.1 mph /  13 km/h 8.1 mph /  13 km/h 78 % 0.00 in /  0 mm 0.0 W/m2 CLR
04:12 41.0 °F /  5 °C 34.7 °F /  1.5 °C 30.38 in /  1028.7 hPa West 10.4 mph /  16.7 km/h 10.4 mph /  16.7 km/h 78 % 0.00 in /  0 mm 0.0 W/m2 CLR
04:17 41.0 °F /  5 °C 34.3 °F /  1.3 °C 30.38 in /  1028.7 hPa WSW 10.4 mph /  16.7 km/h 10.4 mph /  16.7 km/h 77 % 0.00 in /  0 mm 0.0 W/m2 CLR
04:22 42.0 °F /  5.6 °C 35.3 °F /  1.8 °C 30.38 in /  1028.7 hPa West 5.8 mph /  9.3 km/h 5.8 mph /  9.3 km/h 77 % 0.00 in /  0 mm 0.0 W/m2 CLR
04:27 41.0 °F /  5 °C 34.7 °F /  1.5 °C 30.38 in /  1028.7 hPa WNW 9.2 mph /  14.8 km/h 9.2 mph /  14.8 km/h 78 % 0.00 in /  0 mm 0.0 W/m2 CLR
04:32 40.0 °F /  4.4 °C 33.7 °F /  0.9 °C 30.38 in /  1028.7 hPa WNW 10.4 mph /  16.7 km/h 10.4 mph /  16.7 km/h 78 % 0.00 in /  0 mm 0.0 W/m2 CLR
04:37 39.0 °F /  3.9 °C 32.7 °F /  0.4 °C 30.38 in /  1028.7 hPa West 6.9 mph /  11.1 km/h 6.9 mph /  11.1 km/h 78 % 0.00 in /  0 mm 0.0 W/m2 CLR
04:42 38.0 °F /  3.3 °C 31.7 °F /  -0.2 °C 30.38 in /  1028.7 hPa WNW 9.2 mph /  14.8 km/h 9.2 mph /  14.8 km/h 78 % 0.00 in /  0 mm 0.0 W/m2 CLR
04:47 37.0 °F /  2.8 °C 30.8 °F /  -0.7 °C 30.38 in /  1028.7 hPa WNW 8.1 mph /  13 km/h 8.1 mph /  13 km/h 78 % 0.00 in /  0 mm 0.0 W/m2 CLR
04:52 36.0 °F /  2.2 °C 29.5 °F /  -1.4 °C 30.38 in /  1028.7 hPa WNW 4.6 mph /  7.4 km/h 4.6 mph /  7.4 km/h 77 % 0.00 in /  0 mm 0.0 W/m2 CLR
04:57 36.0 °F /  2.2 °C 29.5 °F /  -1.4 °C 30.37 in /  1028.3 hPa WNW 10.4 mph /  16.7 km/h 10.4 mph /  16.7 km/h 77 % 0.00 in /  0 mm 0.0 W/m2 CLR
05:02 35.0 °F /  1.7 °C 28.5 °F /  -1.9 °C 30.37 in /  1028.3 hPa WNW 6.9 mph /  11.1 km/h 6.9 mph /  11.1 km/h 77 % 0.00 in /  0 mm 0.0 W/m2 CLR
05:07 35.0 °F /  1.7 °C 28.2 °F /  -2.1 °C 30.38 in /  1028.7 hPa Calm     76 % 0.00 in /  0 mm 0.0 W/m2 CLR
05:12 35.0 °F /  1.7 °C 28.2 °F /  -2.1 °C 30.37 in /  1028.3 hPa Calm     76 % 0.00 in /  0 mm 0.0 W/m2 CLR
05:17 35.0 °F /  1.7 °C 29.5 °F /  -1.4 °C 30.37 in /  1028.3 hPa Calm     80 % 0.00 in /  0 mm 0.0 W/m2 CLR
05:22 35.0 °F /  1.7 °C 28.8 °F /  -1.8 °C 30.38 in /  1028.7 hPa Calm     78 % 0.00 in /  0 mm 0.0 W/m2 CLR
05:27 34.0 °F /  1.1 °C 28.5 °F /  -1.9 °C 30.37 in /  1028.3 hPa Calm     80 % 0.00 in /  0 mm 0.0 W/m2 CLR
05:32 35.0 °F /  1.7 °C 29.8 °F /  -1.2 °C 30.37 in /  1028.3 hPa WNW 8.1 mph /  13 km/h 8.1 mph /  13 km/h 81 % 0.00 in /  0 mm 0.0 W/m2 CLR
05:37 35.0 °F /  1.7 °C 29.1 °F /  -1.6 °C 30.37 in /  1028.3 hPa WNW 11.5 mph /  18.5 km/h 11.5 mph /  18.5 km/h 79 % 0.00 in /  0 mm 0.0 W/m2 CLR
05:42 34.0 °F /  1.1 °C 27.5 °F /  -2.5 °C 30.37 in /  1028.3 hPa WNW 10.4 mph /  16.7 km/h 10.4 mph /  16.7 km/h 77 % 0.00 in /  0 mm 0.0 W/m2 CLR
05:47 34.0 °F /  1.1 °C 27.5 °F /  -2.5 °C 30.37 in /  1028.3 hPa West 9.2 mph /  14.8 km/h 9.2 mph /  14.8 km/h 77 % 0.00 in /  0 mm 0.0 W/m2 CLR
05:52 34.0 °F /  1.1 °C 27.5 °F /  -2.5 °C 30.37 in /  1028.3 hPa WNW 9.2 mph /  14.8 km/h 9.2 mph /  14.8 km/h 77 % 0.00 in /  0 mm 0.0 W/m2 CLR
05:57 34.0 °F /  1.1 °C 27.5 °F /  -2.5 °C 30.37 in /  1028.3 hPa WNW 11.5 mph /  18.5 km/h 11.5 mph /  18.5 km/h 77 % 0.00 in /  0 mm 0.0 W/m2 CLR
06:02 34.0 °F /  1.1 °C 27.5 °F /  -2.5 °C 30.37 in /  1028.3 hPa West 8.1 mph /  13 km/h 8.1 mph /  13 km/h 77 % 0.00 in /  0 mm 0.0 W/m2 CLR
06:07 34.0 °F /  1.1 °C 27.5 °F /  -2.5 °C 30.36 in /  1028 hPa West 3.5 mph /  5.6 km/h 3.5 mph /  5.6 km/h 77 % 0.00 in /  0 mm 0.0 W/m2 CLR
06:12 35.0 °F /  1.7 °C 28.5 °F /  -1.9 °C 30.36 in /  1028 hPa Calm     77 % 0.00 in /  0 mm 0.0 W/m2 CLR
06:17 36.0 °F /  2.2 °C 29.5 °F /  -1.4 °C 30.37 in /  1028.3 hPa Calm     77 % 0.00 in /  0 mm 0.0 W/m2 CLR
06:22 36.0 °F /  2.2 °C 29.8 °F /  -1.2 °C 30.37 in /  1028.3 hPa Calm   0.1 mph /  0.2 km/h 78 % 0.00 in /  0 mm 0.0 W/m2 CLR
06:27 36.0 °F /  2.2 °C 30.7 °F /  -0.7 °C 30.36 in /  1028 hPa WNW 10.4 mph /  16.7 km/h 10.4 mph /  16.7 km/h 81 % 0.00 in /  0 mm 0.0 W/m2 CLR
06:32 36.0 °F /  2.2 °C 30.1 °F /  -1.1 °C 30.36 in /  1028 hPa West 10.4 mph /  16.7 km/h 10.4 mph /  16.7 km/h 79 % 0.00 in /  0 mm 0.0 W/m2 CLR
06:37 36.0 °F /  2.2 °C 29.5 °F /  -1.4 °C 30.37 in /  1028.3 hPa Calm     77 % 0.00 in /  0 mm 0.0 W/m2 CLR
06:42 36.0 °F /  2.2 °C 29.5 °F /  -1.4 °C 30.37 in /  1028.3 hPa West 3.5 mph /  5.6 km/h 3.5 mph /  5.6 km/h 77 % 0.00 in /  0 mm 0.0 W/m2 CLR
06:47 36.0 °F /  2.2 °C 30.4 °F /  -0.9 °C 30.37 in /  1028.3 hPa WNW 5.8 mph /  9.3 km/h 5.8 mph /  9.3 km/h 80 % 0.00 in /  0 mm 0.0 W/m2 CLR
06:52 35.0 °F /  1.7 °C 28.8 °F /  -1.8 °C 30.37 in /  1028.3 hPa WNW 8.1 mph /  13 km/h 8.1 mph /  13 km/h 78 % 0.00 in /  0 mm 0.0 W/m2 CLR
06:57 35.0 °F /  1.7 °C 28.2 °F /  -2.1 °C 30.37 in /  1028.3 hPa WNW 6.9 mph /  11.1 km/h 6.9 mph /  11.1 km/h 76 % 0.00 in /  0 mm 0.0 W/m2 CLR
07:02 34.0 °F /  1.1 °C 26.9 °F /  -2.8 °C 30.37 in /  1028.3 hPa West 5.8 mph /  9.3 km/h 5.8 mph /  9.3 km/h 75 % 0.00 in /  0 mm 0.0 W/m2 CLR
07:07 34.0 °F /  1.1 °C 26.3 °F /  -3.2 °C 30.37 in /  1028.3 hPa Calm     73 % 0.00 in /  0 mm 0.0 W/m2 CLR
07:12 35.0 °F /  1.7 °C 28.2 °F /  -2.1 °C 30.37 in /  1028.3 hPa Calm     76 % 0.00 in /  0 mm 0.0 W/m2 CLR
07:17 36.0 °F /  2.2 °C 29.8 °F /  -1.2 °C 30.37 in /  1028.3 hPa Calm     78 % 0.00 in /  0 mm 0.0 W/m2 CLR
07:22 36.0 °F /  2.2 °C 30.4 °F /  -0.9 °C 30.37 in /  1028.3 hPa WSW 3.5 mph /  5.6 km/h 3.5 mph /  5.6 km/h 80 % 0.00 in /  0 mm 0.0 W/m2 CLR
07:27 35.0 °F /  1.7 °C 29.8 °F /  -1.2 °C 30.37 in /  1028.3 hPa WSW 3.5 mph /  5.6 km/h 3.5 mph /  5.6 km/h 81 % 0.00 in /  0 mm 0.0 W/m2 CLR
07:32 35.0 °F /  1.7 °C 30.1 °F /  -1.1 °C 30.37 in /  1028.3 hPa Calm     82 % 0.00 in /  0 mm 0.0 W/m2 CLR
07:37 34.0 °F /  1.1 °C 29.4 °F /  -1.4 °C 30.37 in /  1028.3 hPa Calm     83 % 0.00 in /  0 mm 0.0 W/m2 CLR
07:42 33.0 °F /  0.6 °C 28.4 °F /  -2 °C 30.37 in /  1028.3 hPa Calm     83 % 0.00 in /  0 mm 0.0 W/m2 CLR
07:47 33.0 °F /  0.6 °C 28.7 °F /  -1.8 °C 30.37 in /  1028.3 hPa Calm     84 % 0.00 in /  0 mm 0.0 W/m2 CLR
07:52 32.0 °F /  0 °C 27.7 °F /  -2.4 °C 30.37 in /  1028.3 hPa Calm     84 % 0.00 in /  0 mm 0.0 W/m2 CLR
07:57 32.0 °F /  0 °C 27.7 °F /  -2.4 °C 30.37 in /  1028.3 hPa Calm     84 % 0.00 in /  0 mm 0.0 W/m2 CLR
08:02 32.0 °F /  0 °C 28.0 °F /  -2.2 °C 30.37 in /  1028.3 hPa Calm     85 % 0.00 in /  0 mm 0.0 W/m2 CLR
08:07 32.0 °F /  0 °C 28.0 °F /  -2.2 °C 30.37 in /  1028.3 hPa Calm     85 % 0.00 in /  0 mm 0.0 W/m2 CLR
08:12 32.0 °F /  0 °C 28.0 °F /  -2.2 °C 30.37 in /  1028.3 hPa Calm     85 % 0.00 in /  0 mm 0.0 W/m2 OVC
08:17 32.0 °F /  0 °C 28.0 °F /  -2.2 °C 30.38 in /  1028.7 hPa Calm     85 % 0.00 in /  0 mm 0.0 W/m2 OVC
08:22 32.0 °F /  0 °C 28.0 °F /  -2.2 °C 30.38 in /  1028.7 hPa Calm     85 % 0.00 in /  0 mm 5.0 W/m2 OVC
08:27 33.0 °F /  0.6 °C 29.3 °F /  -1.5 °C 30.38 in /  1028.7 hPa Calm     86 % 0.00 in /  0 mm 9.0 W/m2 BKN
08:33 33.0 °F /  0.6 °C 29.3 °F /  -1.5 °C 30.38 in /  1028.7 hPa Calm     86 % 0.00 in /  0 mm 11.0 W/m2 BKN
08:38 33.0 °F /  0.6 °C 29.6 °F /  -1.3 °C 30.38 in /  1028.7 hPa Calm     87 % 0.00 in /  0 mm 14.0 W/m2 BKN
08:43 32.0 °F /  0 °C 28.6 °F /  -1.9 °C 30.38 in /  1028.7 hPa Calm     87 % 0.00 in /  0 mm 16.0 W/m2 BKN
08:48 33.0 °F /  0.6 °C 29.3 °F /  -1.5 °C 30.38 in /  1028.7 hPa Calm     86 % 0.00 in /  0 mm 19.0 W/m2 BKN
08:53 33.0 °F /  0.6 °C 29.3 °F /  -1.5 °C 30.38 in /  1028.7 hPa Calm     86 % 0.00 in /  0 mm 23.0 W/m2 BKN
08:58 34.0 °F /  1.1 °C 30.3 °F /  -0.9 °C 30.38 in /  1028.7 hPa Calm     86 % 0.00 in /  0 mm 28.0 W/m2 BKN
09:03 34.0 °F /  1.1 °C 30.3 °F /  -0.9 °C 30.38 in /  1028.7 hPa Calm     86 % 0.00 in /  0 mm 42.0 W/m2 BKN
09:08 33.0 °F /  0.6 °C 29.3 °F /  -1.5 °C 30.38 in /  1028.7 hPa Calm     86 % 0.00 in /  0 mm 53.0 W/m2 SCT
09:13 34.0 °F /  1.1 °C 30.0 °F /  -1.1 °C 30.38 in /  1028.7 hPa Calm     85 % 0.00 in /  0 mm 62.0 W/m2 SCT
09:18 34.0 °F /  1.1 °C 30.0 °F /  -1.1 °C 30.38 in /  1028.7 hPa Calm     85 % 0.00 in /  0 mm 74.0 W/m2 FEW
09:23 34.0 °F /  1.1 °C 30.0 °F /  -1.1 °C 30.38 in /  1028.7 hPa Calm     85 % 0.00 in /  0 mm 86.0 W/m2 FEW
09:28 34.0 °F /  1.1 °C 29.7 °F /  -1.3 °C 30.38 in /  1028.7 hPa Calm     84 % 0.00 in /  0 mm 100.0 W/m2 FEW
09:33 34.0 °F /  1.1 °C 29.7 °F /  -1.3 °C 30.38 in /  1028.7 hPa Calm     84 % 0.00 in /  0 mm 114.0 W/m2 CLR
09:38 34.0 °F /  1.1 °C 29.4 °F /  -1.4 °C 30.38 in /  1028.7 hPa Calm     83 % 0.00 in /  0 mm 128.0 W/m2 CLR
09:43 35.0 °F /  1.7 °C 30.1 °F /  -1.1 °C 30.38 in /  1028.7 hPa Calm     82 % 0.00 in /  0 mm 144.0 W/m2 CLR
09:48 35.0 °F /  1.7 °C 29.5 °F /  -1.4 °C 30.39 in /  1029 hPa Calm     80 % 0.00 in /  0 mm 158.0 W/m2 CLR
09:53 36.0 °F /  2.2 °C 30.4 °F /  -0.9 °C 30.39 in /  1029 hPa Calm     80 % 0.00 in /  0 mm 176.0 W/m2 CLR
09:58 37.0 °F /  2.8 °C 31.1 °F /  -0.5 °C 30.39 in /  1029 hPa Calm     79 % 0.00 in /  0 mm 179.0 W/m2 CLR
10:03 37.0 °F /  2.8 °C 30.5 °F /  -0.8 °C 30.39 in /  1029 hPa Calm     77 % 0.00 in /  0 mm 142.0 W/m2 CLR
10:08 38.0 °F /  3.3 °C 31.7 °F /  -0.2 °C 30.39 in /  1029 hPa Calm     78 % 0.00 in /  0 mm 172.0 W/m2 CLR
10:13 38.0 °F /  3.3 °C 31.1 °F /  -0.5 °C 30.39 in /  1029 hPa Calm     76 % 0.00 in /  0 mm 181.0 W/m2 CLR
10:18 39.0 °F /  3.9 °C 32.1 °F /  0.1 °C 30.39 in /  1029 hPa Calm     76 % 0.00 in /  0 mm 250.0 W/m2 CLR
10:23 39.0 °F /  3.9 °C 31.7 °F /  -0.2 °C 30.39 in /  1029 hPa Calm     75 % 0.00 in /  0 mm 262.0 W/m2 CLR
10:28 41.0 °F /  5 °C 33.3 °F /  0.7 °C 30.39 in /  1029 hPa Calm     74 % 0.00 in /  0 mm 272.0 W/m2 CLR
10:33 41.0 °F /  5 °C 33.3 °F /  0.7 °C 30.39 in /  1029 hPa Calm     74 % 0.00 in /  0 mm 287.0 W/m2 CLR
10:38 43.0 °F /  6.1 °C 34.6 °F /  1.4 °C 30.39 in /  1029 hPa Calm     72 % 0.00 in /  0 mm 294.0 W/m2 CLR
10:43 44.0 °F /  6.7 °C 35.6 °F /  2 °C 30.39 in /  1029 hPa Calm     72 % 0.00 in /  0 mm 271.0 W/m2 CLR
10:48 45.0 °F /  7.2 °C 35.4 °F /  1.9 °C 30.39 in /  1029 hPa Calm     69 % 0.00 in /  0 mm 311.0 W/m2 CLR
10:53 45.0 °F /  7.2 °C 35.4 °F /  1.9 °C 30.39 in /  1029 hPa Calm     69 % 0.00 in /  0 mm 330.0 W/m2 CLR
10:58 46.0 °F /  7.8 °C 36.8 °F /  2.7 °C 30.39 in /  1029 hPa Calm     70 % 0.00 in /  0 mm 339.0 W/m2 CLR
11:03 46.0 °F /  7.8 °C 36.0 °F /  2.2 °C 30.39 in /  1029 hPa Calm     68 % 0.00 in /  0 mm 350.0 W/m2 CLR
11:08 47.0 °F /  8.3 °C 37.0 °F /  2.8 °C 30.39 in /  1029 hPa Calm     68 % 0.00 in /  0 mm 359.0 W/m2 CLR
11:13 48.0 °F /  8.9 °C 37.2 °F /  2.9 °C 30.39 in /  1029 hPa Calm     66 % 0.00 in /  0 mm 367.0 W/m2 CLR
11:18 48.0 °F /  8.9 °C 36.8 °F /  2.7 °C 30.39 in /  1029 hPa Calm     65 % 0.00 in /  0 mm 378.0 W/m2 CLR
11:23 48.0 °F /  8.9 °C 36.4 °F /  2.4 °C 30.39 in /  1029 hPa Calm     64 % 0.00 in /  0 mm 385.0 W/m2 CLR
11:28 49.0 °F /  9.4 °C 37.3 °F /  2.9 °C 30.39 in /  1029 hPa Calm     64 % 0.00 in /  0 mm 392.0 W/m2 CLR
11:33 49.0 °F /  9.4 °C 36.9 °F /  2.7 °C 30.39 in /  1029 hPa Calm     63 % 0.00 in /  0 mm 399.0 W/m2 CLR
11:38 49.0 °F /  9.4 °C 36.1 °F /  2.3 °C 30.39 in /  1029 hPa Calm     61 % 0.00 in /  0 mm 408.0 W/m2 CLR
11:43 50.0 °F /  10 °C 36.7 °F /  2.6 °C 30.39 in /  1029 hPa Calm     60 % 0.00 in /  0 mm 417.0 W/m2 CLR
11:48 50.0 °F /  10 °C 36.2 °F /  2.3 °C 30.38 in /  1028.7 hPa Calm     59 % 0.00 in /  0 mm 422.0 W/m2 CLR
11:53 51.0 °F /  10.6 °C 35.4 °F /  1.9 °C 30.37 in /  1028.3 hPa North 3.5 mph /  5.6 km/h 3.5 mph /  5.6 km/h 55 % 0.00 in /  0 mm 427.0 W/m2 CLR
11:58 51.0 °F /  10.6 °C 35.4 °F /  1.9 °C 30.38 in /  1028.7 hPa NNW 3.5 mph /  5.6 km/h 3.5 mph /  5.6 km/h 55 % 0.00 in /  0 mm 436.0 W/m2 CLR
12:03 52.0 °F /  11.1 °C 36.3 °F /  2.4 °C 30.38 in /  1028.7 hPa NNW 3.5 mph /  5.6 km/h 3.5 mph /  5.6 km/h 55 % 0.00 in /  0 mm 441.0 W/m2 CLR
12:08 52.0 °F /  11.1 °C 36.3 °F /  2.4 °C 30.37 in /  1028.3 hPa NNW 1.0 mph /  1.6 km/h 1.0 mph /  1.6 km/h 55 % 0.00 in /  0 mm 446.0 W/m2 CLR
12:13 53.0 °F /  11.7 °C 36.8 °F /  2.7 °C 30.37 in /  1028.3 hPa North 2.3 mph /  3.7 km/h 2.3 mph /  3.7 km/h 54 % 0.00 in /  0 mm 452.0 W/m2 CLR
12:18 53.0 °F /  11.7 °C 36.8 °F /  2.7 °C 30.36 in /  1028 hPa NNW 2.3 mph /  3.7 km/h 2.3 mph /  3.7 km/h 54 % 0.00 in /  0 mm 457.0 W/m2 CLR
12:23 53.0 °F /  11.7 °C 36.3 °F /  2.4 °C 30.36 in /  1028 hPa NW 2.3 mph /  3.7 km/h 2.3 mph /  3.7 km/h 53 % 0.00 in /  0 mm 461.0 W/m2 CLR
12:28 54.0 °F /  12.2 °C 37.2 °F /  2.9 °C 30.36 in /  1028 hPa North 1.2 mph /  1.9 km/h 1.2 mph /  1.9 km/h 53 % 0.00 in /  0 mm 464.0 W/m2 CLR
12:33 54.0 °F /  12.2 °C 37.2 °F /  2.9 °C 30.35 in /  1027.7 hPa Calm     53 % 0.00 in /  0 mm 466.0 W/m2 CLR
12:38 54.0 °F /  12.2 °C 36.8 °F /  2.7 °C 30.35 in /  1027.7 hPa NNW 3.5 mph /  5.6 km/h 3.5 mph /  5.6 km/h 52 % 0.00 in /  0 mm 471.0 W/m2 CLR
12:43 54.0 °F /  12.2 °C 36.8 °F /  2.7 °C 30.35 in /  1027.7 hPa Calm     52 % 0.00 in /  0 mm 473.0 W/m2 CLR
12:48 54.0 °F /  12.2 °C 36.8 °F /  2.7 °C 30.34 in /  1027.3 hPa North 3.5 mph /  5.6 km/h 3.5 mph /  5.6 km/h 52 % 0.00 in /  0 mm 476.0 W/m2 CLR
12:53 54.0 °F /  12.2 °C 36.3 °F /  2.4 °C 30.34 in /  1027.3 hPa NNE 3.5 mph /  5.6 km/h 3.5 mph /  5.6 km/h 51 % 0.00 in /  0 mm 482.0 W/m2 CLR
12:58 55.0 °F /  12.8 °C 36.7 °F /  2.6 °C 30.34 in /  1027.3 hPa Calm     50 % 0.00 in /  0 mm 464.0 W/m2 CLR
13:03 55.0 °F /  12.8 °C 36.7 °F /  2.6 °C 30.33 in /  1027 hPa North 3.5 mph /  5.6 km/h 3.5 mph /  5.6 km/h 50 % 0.00 in /  0 mm 482.0 W/m2 CLR
13:08 56.0 °F /  13.3 °C 37.6 °F /  3.1 °C 30.33 in /  1027 hPa North 3.5 mph /  5.6 km/h 3.5 mph /  5.6 km/h 50 % 0.00 in /  0 mm 482.0 W/m2 CLR
13:13 56.0 °F /  13.3 °C 37.1 °F /  2.8 °C 30.33 in /  1027 hPa NNW 3.5 mph /  5.6 km/h 3.5 mph /  5.6 km/h 49 % 0.00 in /  0 mm 482.0 W/m2 CLR
13:18 57.0 °F /  13.9 °C 37.5 °F /  3.1 °C 30.32 in /  1026.6 hPa NNW 5.8 mph /  9.3 km/h 5.8 mph /  9.3 km/h 48 % 0.00 in /  0 mm 480.0 W/m2 CLR
13:23 57.0 °F /  13.9 °C 38.0 °F /  3.3 °C 30.32 in /  1026.6 hPa NNW 3.5 mph /  5.6 km/h 3.5 mph /  5.6 km/h 49 % 0.00 in /  0 mm 482.0 W/m2 CLR
13:28 57.0 °F /  13.9 °C 37.0 °F /  2.8 °C 30.32 in /  1026.6 hPa North 3.5 mph /  5.6 km/h 3.5 mph /  5.6 km/h 47 % 0.00 in /  0 mm 480.0 W/m2 CLR
13:33 58.0 °F /  14.4 °C 38.4 °F /  3.6 °C 30.32 in /  1026.6 hPa North 2.3 mph /  3.7 km/h 2.3 mph /  3.7 km/h 48 % 0.00 in /  0 mm 478.0 W/m2 CLR
13:38 57.0 °F /  13.9 °C 37.5 °F /  3.1 °C 30.31 in /  1026.3 hPa NE 4.6 mph /  7.4 km/h 4.6 mph /  7.4 km/h 48 % 0.00 in /  0 mm 476.0 W/m2 CLR
13:43 58.0 °F /  14.4 °C 38.4 °F /  3.6 °C 30.31 in /  1026.3 hPa ENE 3.5 mph /  5.6 km/h 3.5 mph /  5.6 km/h 48 % 0.00 in /  0 mm 473.0 W/m2 CLR
13:48 57.0 °F /  13.9 °C 38.0 °F /  3.3 °C 30.31 in /  1026.3 hPa NNE 5.8 mph /  9.3 km/h 5.8 mph /  9.3 km/h 49 % 0.00 in /  0 mm 471.0 W/m2 CLR
13:53 57.0 °F /  13.9 °C 38.0 °F /  3.3 °C 30.30 in /  1026 hPa NE 3.5 mph /  5.6 km/h 3.5 mph /  5.6 km/h 49 % 0.00 in /  0 mm 468.0 W/m2 CLR
13:58 57.0 °F /  13.9 °C 38.5 °F /  3.6 °C 30.30 in /  1026 hPa NE 3.5 mph /  5.6 km/h 3.5 mph /  5.6 km/h 50 % 0.00 in /  0 mm 464.0 W/m2 CLR
14:03 57.0 °F /  13.9 °C 38.5 °F /  3.6 °C 30.30 in /  1026 hPa North 1.2 mph /  1.9 km/h 1.2 mph /  1.9 km/h 50 % 0.00 in /  0 mm 461.0 W/m2 CLR
14:08 57.0 °F /  13.9 °C 38.5 °F /  3.6 °C 30.29 in /  1025.6 hPa NNE 3.5 mph /  5.6 km/h 3.5 mph /  5.6 km/h 50 % 0.00 in /  0 mm 457.0 W/m2 CLR
14:13 57.0 °F /  13.9 °C 39.0 °F /  3.9 °C 30.29 in /  1025.6 hPa NNE 1.2 mph /  1.9 km/h 1.2 mph /  1.9 km/h 51 % 0.00 in /  0 mm 461.0 W/m2 CLR
14:18 57.0 °F /  13.9 °C 39.0 °F /  3.9 °C 30.29 in /  1025.6 hPa NE 1.2 mph /  1.9 km/h 1.2 mph /  1.9 km/h 51 % 0.00 in /  0 mm 448.0 W/m2 CLR
14:23 58.0 °F /  14.4 °C 39.5 °F /  4.2 °C 30.29 in /  1025.6 hPa NE 2.3 mph /  3.7 km/h 2.3 mph /  3.7 km/h 50 % 0.00 in /  0 mm 432.0 W/m2 CLR
14:29 57.0 °F /  13.9 °C 38.5 °F /  3.6 °C 30.29 in /  1025.6 hPa North 5.8 mph /  9.3 km/h 5.8 mph /  9.3 km/h 50 % 0.00 in /  0 mm 439.0 W/m2 CLR
14:34 57.0 °F /  13.9 °C 38.5 °F /  3.6 °C 30.28 in /  1025.3 hPa North 3.5 mph /  5.6 km/h 3.5 mph /  5.6 km/h 50 % 0.00 in /  0 mm 422.0 W/m2 CLR
14:39 57.0 °F /  13.9 °C 37.5 °F /  3.1 °C 30.28 in /  1025.3 hPa Calm     48 % 0.00 in /  0 mm 432.0 W/m2 CLR
14:44 57.0 °F /  13.9 °C 38.0 °F /  3.3 °C 30.28 in /  1025.3 hPa Calm     49 % 0.00 in /  0 mm 425.0 W/m2 CLR
14:49 57.0 °F /  13.9 °C 37.0 °F /  2.8 °C 30.28 in /  1025.3 hPa NNE 3.5 mph /  5.6 km/h 3.5 mph /  5.6 km/h 47 % 0.00 in /  0 mm 392.0 W/m2 CLR
14:54 57.0 °F /  13.9 °C 37.0 °F /  2.8 °C 30.28 in /  1025.3 hPa NNE 3.5 mph /  5.6 km/h 3.5 mph /  5.6 km/h 47 % 0.00 in /  0 mm 371.0 W/m2 CLR
14:59 57.0 °F /  13.9 °C 37.0 °F /  2.8 °C 30.27 in /  1024.9 hPa ENE 2.3 mph /  3.7 km/h 2.3 mph /  3.7 km/h 47 % 0.00 in /  0 mm 399.0 W/m2 CLR
15:04 58.0 °F /  14.4 °C 38.4 °F /  3.6 °C 30.27 in /  1024.9 hPa Calm   0.5 mph /  0.8 km/h 48 % 0.00 in /  0 mm 388.0 W/m2 CLR
15:09 58.0 °F /  14.4 °C 37.9 °F /  3.3 °C 30.27 in /  1024.9 hPa Calm     47 % 0.00 in /  0 mm 380.0 W/m2 CLR
15:14 58.0 °F /  14.4 °C 37.9 °F /  3.3 °C 30.26 in /  1024.6 hPa Calm     47 % 0.00 in /  0 mm 371.0 W/m2 CLR
15:19 58.0 °F /  14.4 °C 37.3 °F /  2.9 °C 30.26 in /  1024.6 hPa Calm   0.2 mph /  0.3 km/h 46 % 0.00 in /  0 mm 362.0 W/m2 CLR
15:24 58.0 °F /  14.4 °C 37.3 °F /  2.9 °C 30.26 in /  1024.6 hPa Calm     46 % 0.00 in /  0 mm 352.0 W/m2 CLR
15:29 59.0 °F /  15 °C 37.7 °F /  3.2 °C 30.26 in /  1024.6 hPa Calm     45 % 0.00 in /  0 mm 345.0 W/m2 CLR
15:34 59.0 °F /  15 °C 36.5 °F /  2.5 °C 30.26 in /  1024.6 hPa NNW 4.0 mph /  6.4 km/h 4.0 mph /  6.4 km/h 43 % 0.00 in /  0 mm 330.0 W/m2 CLR
15:39 59.0 °F /  15 °C 35.9 °F /  2.2 °C 30.26 in /  1024.6 hPa NNW 3.5 mph /  5.6 km/h 3.5 mph /  5.6 km/h 42 % 0.00 in /  0 mm 320.0 W/m2 CLR
15:44 59.0 °F /  15 °C 35.3 °F /  1.8 °C 30.26 in /  1024.6 hPa NW 3.5 mph /  5.6 km/h 3.5 mph /  5.6 km/h 41 % 0.00 in /  0 mm 309.0 W/m2 CLR
15:49 59.0 °F /  15 °C 34.7 °F /  1.5 °C 30.25 in /  1024.3 hPa NNW 3.5 mph /  5.6 km/h 3.5 mph /  5.6 km/h 40 % 0.00 in /  0 mm 299.0 W/m2 CLR
15:54 59.0 °F /  15 °C 35.9 °F /  2.2 °C 30.25 in /  1024.3 hPa NNW 4.6 mph /  7.4 km/h 4.6 mph /  7.4 km/h 42 % 0.00 in /  0 mm 288.0 W/m2 CLR
15:59 59.0 °F /  15 °C 35.9 °F /  2.2 °C 30.25 in /  1024.3 hPa NNW 3.5 mph /  5.6 km/h 3.5 mph /  5.6 km/h 42 % 0.00 in /  0 mm 274.0 W/m2 CLR
16:04 59.0 °F /  15 °C 34.7 °F /  1.5 °C 30.26 in /  1024.6 hPa NNW 3.5 mph /  5.6 km/h 3.5 mph /  5.6 km/h 40 % 0.00 in /  0 mm 239.0 W/m2 CLR
16:09 59.0 °F /  15 °C 36.5 °F /  2.5 °C 30.25 in /  1024.3 hPa NNW 1.2 mph /  1.9 km/h 1.2 mph /  1.9 km/h 43 % 0.00 in /  0 mm 239.0 W/m2 CLR
16:14 59.0 °F /  15 °C 36.5 °F /  2.5 °C 30.25 in /  1024.3 hPa NNW 3.5 mph /  5.6 km/h 3.5 mph /  5.6 km/h 43 % 0.00 in /  0 mm 200.0 W/m2 CLR
16:19 58.0 °F /  14.4 °C 35.0 °F /  1.7 °C 30.25 in /  1024.3 hPa NNW 2.3 mph /  3.7 km/h 2.3 mph /  3.7 km/h 42 % 0.00 in /  0 mm 216.0 W/m2 CLR
16:24 58.0 °F /  14.4 °C 35.0 °F /  1.7 °C 30.25 in /  1024.3 hPa NW 3.5 mph /  5.6 km/h 3.5 mph /  5.6 km/h 42 % 0.00 in /  0 mm 202.0 W/m2 CLR
16:29 57.0 °F /  13.9 °C 34.1 °F /  1.2 °C 30.25 in /  1024.3 hPa NNW 1.2 mph /  1.9 km/h   42 % 0.00 in /  0 mm 186.0 W/m2 CLR
16:34 56.0 °F /  13.3 °C 34.4 °F /  1.3 °C 30.25 in /  1024.3 hPa NE 2.3 mph /  3.7 km/h 2.3 mph /  3.7 km/h 44 % 0.00 in /  0 mm 171.0 W/m2 CLR
16:39 56.0 °F /  13.3 °C 34.9 °F /  1.6 °C 30.25 in /  1024.3 hPa Calm     45 % 0.00 in /  0 mm 153.0 W/m2 CLR
16:44 55.0 °F /  12.8 °C 34.6 °F /  1.4 °C 30.25 in /  1024.3 hPa Calm     46 % 0.00 in /  0 mm 139.0 W/m2 CLR
16:49 55.0 °F /  12.8 °C 34.6 °F /  1.4 °C 30.25 in /  1024.3 hPa Calm     46 % 0.00 in /  0 mm 125.0 W/m2 CLR
16:54 54.0 °F /  12.2 °C 33.7 °F /  0.9 °C 30.25 in /  1024.3 hPa Calm     46 % 0.00 in /  0 mm 111.0 W/m2 CLR
16:59 54.0 °F /  12.2 °C 34.2 °F /  1.2 °C 30.25 in /  1024.3 hPa Calm     47 % 0.00 in /  0 mm 98.0 W/m2 CLR
17:04 53.0 °F /  11.7 °C 33.3 °F /  0.7 °C 30.25 in /  1024.3 hPa Calm     47 % 0.00 in /  0 mm 83.0 W/m2 FEW
17:09 53.0 °F /  11.7 °C 33.8 °F /  1 °C 30.25 in /  1024.3 hPa Calm     48 % 0.00 in /  0 mm 63.0 W/m2 SCT
17:10 53.0 °F /  11.7 °C 34.3 °F /  1.3 °C 30.25 in /  1024.3 hPa Calm     49 % 0.00 in /  0 mm 54.0 W/m2 SCT
17:15 52.0 °F /  11.1 °C 33.4 °F /  0.8 °C 30.25 in /  1024.3 hPa Calm     49 % 0.00 in /  0 mm 53.0 W/m2 SCT
17:20 51.0 °F /  10.6 °C 32.5 °F /  0.3 °C 30.25 in /  1024.3 hPa Calm     49 % 0.00 in /  0 mm 42.0 W/m2 SCT
17:25 51.0 °F /  10.6 °C 33.0 °F /  0.6 °C 30.25 in /  1024.3 hPa Calm     50 % 0.00 in /  0 mm 32.0 W/m2 BKN
17:30 50.0 °F /  10 °C 32.1 °F /  0.1 °C 30.25 in /  1024.3 hPa Calm     50 % 0.00 in /  0 mm 23.0 W/m2 BKN
17:35 49.0 °F /  9.4 °C 30.7 °F /  -0.7 °C 30.25 in /  1024.3 hPa Calm     49 % 0.00 in /  0 mm 16.0 W/m2 BKN
17:40 48.0 °F /  8.9 °C 30.2 °F /  -1 °C 30.25 in /  1024.3 hPa Calm     50 % 0.00 in /  0 mm 12.0 W/m2 BKN
17:45 48.0 °F /  8.9 °C 30.2 °F /  -1 °C 30.25 in /  1024.3 hPa Calm     50 % 0.00 in /  0 mm 11.0 W/m2 BKN
17:50 47.0 °F /  8.3 °C 29.8 °F /  -1.2 °C 30.25 in /  1024.3 hPa Calm     51 % 0.00 in /  0 mm 7.0 W/m2 BKN
17:55 46.0 °F /  7.8 °C 29.3 °F /  -1.5 °C 30.25 in /  1024.3 hPa Calm     52 % 0.00 in /  0 mm 5.0 W/m2 OVC
18:00 46.0 °F /  7.8 °C 29.8 °F /  -1.2 °C 30.25 in /  1024.3 hPa Calm     53 % 0.00 in /  0 mm 0.0 W/m2 CLR
18:05 46.0 °F /  7.8 °C 30.7 °F /  -0.7 °C 30.25 in /  1024.3 hPa Calm     55 % 0.00 in /  0 mm 0.0 W/m2 CLR
18:10 45.0 °F /  7.2 °C 30.2 °F /  -1 °C 30.25 in /  1024.3 hPa Calm     56 % 0.00 in /  0 mm 0.0 W/m2 CLR
18:15 46.0 °F /  7.8 °C 32.0 °F /  0 °C 30.24 in /  1023.9 hPa Calm     58 % 0.00 in /  0 mm 0.0 W/m2 CLR
18:20 46.0 °F /  7.8 °C 32.9 °F /  0.5 °C 30.24 in /  1023.9 hPa Calm     60 % 0.00 in /  0 mm 0.0 W/m2 CLR
18:25 46.0 °F /  7.8 °C 33.3 °F /  0.7 °C 30.24 in /  1023.9 hPa Calm     61 % 0.00 in /  0 mm 0.0 W/m2 CLR
18:30 45.0 °F /  7.2 °C 33.2 °F /  0.7 °C 30.24 in /  1023.9 hPa Calm     63 % 0.00 in /  0 mm 0.0 W/m2 CLR
18:35 44.0 °F /  6.7 °C 32.6 °F /  0.3 °C 30.24 in /  1023.9 hPa Calm     64 % 0.00 in /  0 mm 0.0 W/m2 CLR
18:40 44.0 °F /  6.7 °C 32.6 °F /  0.3 °C 30.24 in /  1023.9 hPa Calm     64 % 0.00 in /  0 mm 0.0 W/m2 CLR
18:45 43.0 °F /  6.1 °C 32.4 °F /  0.2 °C 30.25 in /  1024.3 hPa Calm     66 % 0.00 in /  0 mm 0.0 W/m2 CLR
18:50 42.0 °F /  5.6 °C 32.2 °F /  0.1 °C 30.25 in /  1024.3 hPa Calm     68 % 0.00 in /  0 mm 0.0 W/m2 CLR
18:55 42.0 °F /  5.6 °C 32.6 °F /  0.3 °C 30.25 in /  1024.3 hPa Calm     69 % 0.00 in /  0 mm 0.0 W/m2 CLR
19:00 42.0 °F /  5.6 °C 32.9 °F /  0.5 °C 30.25 in /  1024.3 hPa Calm     70 % 0.00 in /  0 mm 0.0 W/m2 CLR
19:05 42.0 °F /  5.6 °C 33.3 °F /  0.7 °C 30.25 in /  1024.3 hPa Calm     71 % 0.00 in /  0 mm 0.0 W/m2 CLR
19:10 42.0 °F /  5.6 °C 33.3 °F /  0.7 °C 30.25 in /  1024.3 hPa Calm     71 % 0.00 in /  0 mm 0.0 W/m2 CLR
19:15 42.0 °F /  5.6 °C 33.6 °F /  0.9 °C 30.25 in /  1024.3 hPa Calm     72 % 0.00 in /  0 mm 0.0 W/m2 CLR
19:20 42.0 °F /  5.6 °C 33.6 °F /  0.9 °C 30.25 in /  1024.3 hPa Calm     72 % 0.00 in /  0 mm 0.0 W/m2 CLR
19:25 41.0 °F /  5 °C 33.0 °F /  0.6 °C 30.25 in /  1024.3 hPa Calm     73 % 0.00 in /  0 mm 0.0 W/m2 CLR
19:30 40.0 °F /  4.4 °C 32.0 °F /  0 °C 30.25 in /  1024.3 hPa Calm     73 % 0.00 in /  0 mm 0.0 W/m2 CLR
19:35 40.0 °F /  4.4 °C 32.4 °F /  0.2 °C 30.25 in /  1024.3 hPa Calm     74 % 0.00 in /  0 mm 0.0 W/m2 CLR
19:40 40.0 °F /  4.4 °C 32.4 °F /  0.2 °C 30.25 in /  1024.3 hPa Calm     74 % 0.00 in /  0 mm 0.0 W/m2 CLR
19:46 40.0 °F /  4.4 °C 32.7 °F /  0.4 °C 30.24 in /  1023.9 hPa Calm     75 % 0.00 in /  0 mm 0.0 W/m2 CLR
19:51 40.0 °F /  4.4 °C 33.0 °F /  0.6 °C 30.24 in /  1023.9 hPa Calm     76 % 0.00 in /  0 mm 0.0 W/m2 CLR
19:56 39.0 °F /  3.9 °C 32.1 °F /  0.1 °C 30.24 in /  1023.9 hPa Calm     76 % 0.00 in /  0 mm 0.0 W/m2 CLR
20:01 39.0 °F /  3.9 °C 32.1 °F /  0.1 °C 30.24 in /  1023.9 hPa Calm     76 % 0.00 in /  0 mm 0.0 W/m2 CLR
20:06 38.0 °F /  3.3 °C 31.1 °F /  -0.5 °C 30.25 in /  1024.3 hPa Calm     76 % 0.00 in /  0 mm 0.0 W/m2 CLR
20:11 38.0 °F /  3.3 °C 30.8 °F /  -0.7 °C 30.24 in /  1023.9 hPa Calm     75 % 0.00 in /  0 mm 0.0 W/m2 CLR
20:16 38.0 °F /  3.3 °C 30.8 °F /  -0.7 °C 30.24 in /  1023.9 hPa Calm     75 % 0.00 in /  0 mm 0.0 W/m2 CLR
20:21 38.0 °F /  3.3 °C 30.8 °F /  -0.7 °C 30.24 in /  1023.9 hPa Calm     75 % 0.00 in /  0 mm 0.0 W/m2 CLR
20:26 38.0 °F /  3.3 °C 31.4 °F /  -0.3 °C 30.24 in /  1023.9 hPa Calm     77 % 0.00 in /  0 mm 0.0 W/m2 CLR
20:31 38.0 °F /  3.3 °C 31.1 °F /  -0.5 °C 30.24 in /  1023.9 hPa Calm     76 % 0.00 in /  0 mm 0.0 W/m2 CLR
20:36 38.0 °F /  3.3 °C 31.1 °F /  -0.5 °C 30.24 in /  1023.9 hPa Calm     76 % 0.00 in /  0 mm 0.0 W/m2 CLR
20:41 38.0 °F /  3.3 °C 31.1 °F /  -0.5 °C 30.24 in /  1023.9 hPa Calm     76 % 0.00 in /  0 mm 0.0 W/m2 CLR
20:46 37.0 °F /  2.8 °C 29.8 °F /  -1.2 °C 30.25 in /  1024.3 hPa Calm     75 % 0.00 in /  0 mm 0.0 W/m2 CLR
20:51 37.0 °F /  2.8 °C 29.8 °F /  -1.2 °C 30.24 in /  1023.9 hPa Calm     75 % 0.00 in /  0 mm 0.0 W/m2 CLR
20:56 36.0 °F /  2.2 °C 29.2 °F /  -1.6 °C 30.24 in /  1023.9 hPa Calm     76 % 0.00 in /  0 mm 0.0 W/m2 CLR
21:01 36.0 °F /  2.2 °C 29.2 °F /  -1.6 °C 30.24 in /  1023.9 hPa Calm     76 % 0.00 in /  0 mm 0.0 W/m2 CLR
21:06 36.0 °F /  2.2 °C 29.2 °F /  -1.6 °C 30.24 in /  1023.9 hPa Calm     76 % 0.00 in /  0 mm 0.0 W/m2 CLR
21:11 36.0 °F /  2.2 °C 29.2 °F /  -1.6 °C 30.24 in /  1023.9 hPa Calm     76 % 0.00 in /  0 mm 0.0 W/m2 CLR
21:16 37.0 °F /  2.8 °C 29.8 °F /  -1.2 °C 30.24 in /  1023.9 hPa Calm     75 % 0.00 in /  0 mm 0.0 W/m2 CLR
21:21 37.0 °F /  2.8 °C 29.8 °F /  -1.2 °C 30.24 in /  1023.9 hPa Calm     75 % 0.00 in /  0 mm 0.0 W/m2 CLR
21:26 37.0 °F /  2.8 °C 29.5 °F /  -1.4 °C 30.25 in /  1024.3 hPa Calm     74 % 0.00 in /  0 mm 0.0 W/m2 CLR
21:31 37.0 °F /  2.8 °C 29.5 °F /  -1.4 °C 30.25 in /  1024.3 hPa Calm     74 % 0.00 in /  0 mm 0.0 W/m2 CLR
21:36 37.0 °F /  2.8 °C 29.5 °F /  -1.4 °C 30.24 in /  1023.9 hPa Calm     74 % 0.00 in /  0 mm 0.0 W/m2 CLR
21:41 37.0 °F /  2.8 °C 29.5 °F /  -1.4 °C 30.24 in /  1023.9 hPa Calm     74 % 0.00 in /  0 mm 0.0 W/m2 CLR
21:47 37.0 °F /  2.8 °C 29.8 °F /  -1.2 °C 30.24 in /  1023.9 hPa Calm     75 % 0.00 in /  0 mm 0.0 W/m2 CLR
21:52 37.0 °F /  2.8 °C 30.1 °F /  -1.1 °C 30.24 in /  1023.9 hPa Calm     76 % 0.00 in /  0 mm 0.0 W/m2 CLR
21:57 37.0 °F /  2.8 °C 30.1 °F /  -1.1 °C 30.24 in /  1023.9 hPa Calm     76 % 0.00 in /  0 mm 0.0 W/m2 CLR
22:02 36.0 °F /  2.2 °C 29.2 °F /  -1.6 °C 30.24 in /  1023.9 hPa Calm     76 % 0.00 in /  0 mm 0.0 W/m2 CLR
22:07 36.0 °F /  2.2 °C 29.5 °F /  -1.4 °C 30.24 in /  1023.9 hPa Calm     77 % 0.00 in /  0 mm 0.0 W/m2 CLR
22:12 36.0 °F /  2.2 °C 29.5 °F /  -1.4 °C 30.24 in /  1023.9 hPa Calm     77 % 0.00 in /  0 mm 0.0 W/m2 CLR
22:17 36.0 °F /  2.2 °C 29.5 °F /  -1.4 °C 30.24 in /  1023.9 hPa Calm     77 % 0.00 in /  0 mm 0.0 W/m2 CLR
22:22 36.0 °F /  2.2 °C 29.5 °F /  -1.4 °C 30.24 in /  1023.9 hPa Calm     77 % 0.00 in /  0 mm 0.0 W/m2 CLR
22:27 36.0 °F /  2.2 °C 29.2 °F /  -1.6 °C 30.23 in /  1023.6 hPa Calm     76 % 0.00 in /  0 mm 0.0 W/m2 CLR
22:32 37.0 °F /  2.8 °C 29.8 °F /  -1.2 °C 30.24 in /  1023.9 hPa Calm     75 % 0.00 in /  0 mm 0.0 W/m2 CLR
22:37 36.0 °F /  2.2 °C 29.2 °F /  -1.6 °C 30.23 in /  1023.6 hPa Calm     76 % 0.00 in /  0 mm 0.0 W/m2 CLR
22:42 36.0 °F /  2.2 °C 29.5 °F /  -1.4 °C 30.23 in /  1023.6 hPa Calm     77 % 0.00 in /  0 mm 0.0 W/m2 CLR
22:47 35.0 °F /  1.7 °C 28.8 °F /  -1.8 °C 30.23 in /  1023.6 hPa Calm     78 % 0.00 in /  0 mm 0.0 W/m2 CLR
22:52 35.0 °F /  1.7 °C 29.1 °F /  -1.6 °C 30.23 in /  1023.6 hPa Calm     79 % 0.00 in /  0 mm 0.0 W/m2 CLR
22:57 35.0 °F /  1.7 °C 29.1 °F /  -1.6 °C 30.23 in /  1023.6 hPa Calm     79 % 0.00 in /  0 mm 0.0 W/m2 CLR
23:02 35.0 °F /  1.7 °C 29.1 °F /  -1.6 °C 30.24 in /  1023.9 hPa Calm     79 % 0.00 in /  0 mm 0.0 W/m2 CLR
23:07 36.0 °F /  2.2 °C 30.4 °F /  -0.9 °C 30.23 in /  1023.6 hPa Calm     80 % 0.00 in /  0 mm 0.0 W/m2 CLR
23:12 36.0 °F /  2.2 °C 30.4 °F /  -0.9 °C 30.24 in /  1023.9 hPa Calm     80 % 0.00 in /  0 mm 0.0 W/m2 CLR
23:17 35.0 °F /  1.7 °C 29.5 °F /  -1.4 °C 30.24 in /  1023.9 hPa Calm     80 % 0.00 in /  0 mm 0.0 W/m2 CLR
23:22 35.0 °F /  1.7 °C 29.5 °F /  -1.4 °C 30.24 in /  1023.9 hPa Calm     80 % 0.00 in /  0 mm 0.0 W/m2 CLR
23:27 35.0 °F /  1.7 °C 29.8 °F /  -1.2 °C 30.24 in /  1023.9 hPa Calm     81 % 0.00 in /  0 mm 0.0 W/m2 CLR
23:32 35.0 °F /  1.7 °C 29.8 °F /  -1.2 °C 30.24 in /  1023.9 hPa Calm     81 % 0.00 in /  0 mm 0.0 W/m2 CLR
23:37 35.0 °F /  1.7 °C 29.8 °F /  -1.2 °C 30.24 in /  1023.9 hPa Calm     81 % 0.00 in /  0 mm 0.0 W/m2 CLR
23:42 35.0 °F /  1.7 °C 29.8 °F /  -1.2 °C 30.25 in /  1024.3 hPa Calm     81 % 0.00 in /  0 mm 0.0 W/m2 CLR
23:47 35.0 °F /  1.7 °C 29.8 °F /  -1.2 °C 30.25 in /  1024.3 hPa Calm     81 % 0.00 in /  0 mm 0.0 W/m2 CLR
23:52 35.0 °F /  1.7 °C 30.1 °F /  -1.1 °C 30.25 in /  1024.3 hPa Calm     82 % 0.00 in /  0 mm 0.0 W/m2 CLR
23:57 35.0 °F /  1.7 °C 30.1 °F /  -1.1 °C 30.25 in /  1024.3 hPa Calm     82 % 0.00 in /  0 mm 0.0 W/m2 CLR
Lo Temps de Massalio
Compliments of Weather Underground - 1.25 mb